Time;durP1;ratioP1;P1;durP2;ratioP2;P2;SDS_P1;SDS_P2;PMS_P1;PMS_P2;Temp;Humidity;BMP_temperature;BMP_pressure;BME280_temperature;BME280_humidity;BME280_pressure;Samples;Min_cycle;Max_cycle;Signal;HPM_P1;HPM_P2
2023/06/12 00:01:57;;;;;;;11.40;10.60;;;;;;;16.65;92.51;92323.34;4998216;28;20246;-77
2023/06/12 00:04:23;;;;;;;11.30;10.23;;;;;;;16.65;91.96;92304.09;4999724;28;20246;-77
2023/06/12 00:06:50;;;;;;;11.80;11.00;;;;;;;16.67;92.65;92321.13;5010811;28;20195;-77
2023/06/12 00:09:15;;;;;;;12.20;11.10;;;;;;;16.55;92.53;92299.97;5010391;28;20190;-77
2023/06/12 00:11:41;;;;;;;11.83;10.73;;;;;;;16.62;92.63;92292.34;5011690;28;20231;-77
2023/06/12 00:14:07;;;;;;;12.07;10.23;;;;;;;16.81;92.52;92319.00;4991063;28;20192;-77
2023/06/12 00:16:33;;;;;;;11.10;10.40;;;;;;;16.84;93.23;92336.81;5006636;28;20185;-77
2023/06/12 00:18:58;;;;;;;10.67;9.97;;;;;;;16.83;92.62;92327.38;5011244;28;20207;-77
2023/06/12 00:21:23;;;;;;;10.37;9.80;;;;;;;16.86;92.27;92328.56;5008088;28;20208;-78
2023/06/12 00:23:49;;;;;;;11.20;10.30;;;;;;;16.88;92.22;92323.75;5010450;28;20219;-75
2023/06/12 00:26:15;;;;;;;11.27;10.50;;;;;;;16.87;92.50;92328.25;5011477;28;20234;-77
2023/06/12 00:28:40;;;;;;;12.00;11.07;;;;;;;16.75;93.68;92330.06;5009303;28;20188;-76
2023/06/12 00:31:06;;;;;;;10.70;10.10;;;;;;;16.73;94.69;92317.19;5014344;28;20214;-76
2023/06/12 00:33:31;;;;;;;12.23;10.87;;;;;;;16.59;95.04;92319.31;5014932;28;20187;-77
2023/06/12 00:35:57;;;;;;;11.97;11.07;;;;;;;16.66;94.55;92314.31;5011694;28;20242;-76
2023/06/12 00:38:22;;;;;;;11.27;10.37;;;;;;;16.74;94.11;92323.25;5013346;28;20270;-76
2023/06/12 00:40:48;;;;;;;12.23;11.37;;;;;;;16.62;94.14;92305.53;5012093;28;20222;-77
2023/06/12 00:43:15;;;;;;;11.67;10.70;;;;;;;16.78;94.13;92322.28;5024012;28;20211;-77
2023/06/12 00:45:40;;;;;;;11.37;10.57;;;;;;;16.77;93.88;92301.50;5015201;28;20222;-77
2023/06/12 00:48:07;;;;;;;11.77;10.87;;;;;;;16.73;94.95;92322.47;5024143;28;20170;-77
2023/06/12 00:50:34;;;;;;;12.63;11.57;;;;;;;16.83;94.58;92322.09;5012913;28;20231;-77
2023/06/12 00:53:00;;;;;;;11.80;11.00;;;;;;;16.88;94.11;92335.09;5013348;28;20187;-79
2023/06/12 00:55:29;;;;;;;12.10;11.20;;;;;;;16.90;94.04;92309.13;5011375;28;20234;-78
2023/06/12 00:57:54;;;;;;;11.33;10.47;;;;;;;17.06;93.27;92306.66;5010833;28;20245;-79
2023/06/12 01:00:20;;;;;;;10.80;10.03;;;;;;;17.13;93.23;92326.19;5005565;28;20239;-79
2023/06/12 01:02:50;;;;;;;11.67;10.53;;;;;;;17.16;93.04;92330.81;5023590;28;20217;-78
2023/06/12 01:05:19;;;;;;;11.77;10.80;;;;;;;17.15;92.83;92316.03;4994520;28;20223;-79
2023/06/12 01:07:54;;;;;;;11.63;10.77;;;;;;;17.26;93.29;92327.72;5005737;28;20263;-79
2023/06/12 01:10:43;;;;;;;12.23;11.33;;;;;;;17.26;93.27;92330.38;5004291;28;20228;-78
2023/06/12 01:13:12;;;;;;;11.77;10.90;;;;;;;17.34;93.66;92331.38;5001140;28;20261;-79
2023/06/12 01:15:38;;;;;;;12.60;11.53;;;;;;;17.31;93.29;92322.25;5017953;28;20290;-79
2023/06/12 01:18:06;;;;;;;12.37;11.33;;;;;;;16.94;93.22;92254.66;5010165;28;20215;-82
2023/06/12 01:20:33;;;;;;;12.73;11.83;;;;;;;17.38;93.32;92322.50;4996597;28;20231;-81
2023/06/12 01:23:18;;;;;;;12.27;11.37;;;;;;;17.41;93.64;92326.34;5013234;28;20222;-79
2023/06/12 01:26:14;;;;;;;12.07;11.27;;;;;;;17.42;93.71;92323.38;5012754;28;20227;-79
2023/06/12 01:29:08;;;;;;;11.53;10.73;;;;;;;17.31;94.29;92324.13;5002049;28;20191;-79
2023/06/12 01:31:43;;;;;;;11.87;11.07;;;;;;;17.26;94.18;92322.47;4961278;28;20216;-79
2023/06/12 01:34:12;;;;;;;11.13;10.33;;;;;;;17.21;94.26;92322.66;5011979;28;20187;-78
2023/06/12 01:36:41;;;;;;;12.13;11.00;;;;;;;17.32;93.90;92323.03;5013715;28;20195;-78
2023/06/12 01:39:10;;;;;;;11.87;11.13;;;;;;;17.10;94.05;92289.91;5005460;28;20257;-79
2023/06/12 01:41:36;;;;;;;12.30;11.00;;;;;;;16.92;93.91;92271.91;5011679;28;20247;-79
2023/06/12 01:44:09;;;;;;;12.40;11.37;;;;;;;17.35;93.38;92325.78;5008937;28;20207;-79
2023/06/12 01:46:35;;;;;;;12.07;11.00;;;;;;;17.29;93.39;92316.53;5021121;28;20876;-78
2023/06/12 01:49:04;;;;;;;11.73;10.73;;;;;;;17.19;94.64;92330.16;5014483;28;20210;-79
2023/06/12 01:51:30;;;;;;;11.27;10.57;;;;;;;17.16;94.38;92325.53;5013412;28;20202;-79
2023/06/12 01:53:55;;;;;;;11.90;11.13;;;;;;;17.25;94.44;92317.50;5013615;28;20188;-78
2023/06/12 01:56:25;;;;;;;11.70;10.80;;;;;;;17.10;94.66;92305.72;5012535;28;20222;-78
2023/06/12 01:58:52;;;;;;;12.80;11.70;;;;;;;17.24;94.46;92316.75;5013231;28;20195;-80
2023/06/12 02:01:18;;;;;;;11.77;10.87;;;;;;;17.24;94.93;92316.75;4995350;28;20227;-80
2023/06/12 02:03:45;;;;;;;12.37;11.57;;;;;;;17.31;93.95;92311.69;5012913;28;20729;-76
2023/06/12 02:06:14;;;;;;;11.77;10.87;;;;;;;17.07;95.55;92319.56;5016993;28;20216;-76
2023/06/12 02:08:40;;;;;;;12.17;11.37;;;;;;;17.19;95.08;92324.88;5021491;28;20194;-77
2023/06/12 02:11:06;;;;;;;11.70;10.73;;;;;;;17.21;94.13;92317.38;5012365;28;20223;-77
2023/06/12 02:13:31;;;;;;;11.13;10.33;;;;;;;17.02;95.09;92296.03;5012914;28;20183;-78
2023/06/12 02:15:56;;;;;;;11.67;10.67;;;;;;;17.24;95.56;92326.53;5011681;28;20215;-77
2023/06/12 02:18:22;;;;;;;12.97;11.33;;;;;;;17.29;95.27;92327.09;5012998;28;20218;-77
2023/06/12 02:20:49;;;;;;;12.33;11.43;;;;;;;17.29;95.02;92334.25;5012036;28;20246;-78
2023/06/12 02:23:14;;;;;;;11.47;10.77;;;;;;;17.03;95.19;92320.50;5012118;28;20200;-78
2023/06/12 02:25:40;;;;;;;12.40;11.30;;;;;;;17.22;94.89;92334.78;5012232;28;20243;-78
2023/06/12 02:28:07;;;;;;;11.53;10.60;;;;;;;17.24;93.76;92331.81;5012687;28;20204;-78
2023/06/12 02:30:32;;;;;;;11.27;10.37;;;;;;;17.30;93.96;92347.13;5016912;28;20223;-77
2023/06/12 02:32:57;;;;;;;11.63;10.87;;;;;;;17.34;93.81;92349.84;5013320;28;20248;-77
2023/06/12 02:35:23;;;;;;;11.57;10.77;;;;;;;17.26;93.53;92340.19;5012669;28;20218;-78
2023/06/12 02:37:48;;;;;;;12.07;11.07;;;;;;;17.28;93.80;92353.78;5012183;28;20198;-77
2023/06/12 02:40:13;;;;;;;11.03;10.10;;;;;;;17.14;93.64;92327.72;5012100;28;20247;-78
2023/06/12 02:42:39;;;;;;;11.20;10.10;;;;;;;17.31;93.19;92348.66;5013848;28;20195;-78
2023/06/12 02:45:05;;;;;;;11.10;10.20;;;;;;;17.22;93.47;92340.03;5016648;28;20459;-77
2023/06/12 02:47:30;;;;;;;10.60;9.90;;;;;;;17.02;94.03;92337.44;5013273;28;20218;-77
2023/06/12 02:49:56;;;;;;;10.63;9.83;;;;;;;16.80;94.51;92295.59;5012108;28;20251;-77
2023/06/12 02:52:21;;;;;;;11.17;10.47;;;;;;;17.07;94.81;92330.13;5012366;28;20204;-77
2023/06/12 02:54:46;;;;;;;12.03;10.60;;;;;;;17.00;94.10;92336.97;5010279;28;20219;-78
2023/06/12 02:57:12;;;;;;;11.53;9.47;;;;;;;17.01;93.32;92338.53;4994917;28;20191;-77
2023/06/12 02:59:37;;;;;;;10.93;10.13;;;;;;;17.15;94.27;92355.63;5017408;28;20235;-76
2023/06/12 03:02:03;;;;;;;10.90;10.13;;;;;;;17.01;93.96;92334.03;5013363;28;20187;-76
2023/06/12 03:04:28;;;;;;;10.50;9.80;;;;;;;17.27;93.20;92349.63;5011594;28;20250;-77
2023/06/12 03:06:53;;;;;;;10.40;9.60;;;;;;;17.38;92.25;92359.47;5012803;28;20195;-77
2023/06/12 03:09:23;;;;;;;11.57;10.77;;;;;;;17.41;92.58;92369.38;5016266;28;20231;-78
2023/06/12 03:11:54;;;;;;;11.77;10.67;;;;;;;17.40;92.31;92373.06;5012468;28;20246;-79
2023/06/12 03:14:24;;;;;;;11.30;10.30;;;;;;;17.20;93.07;92358.06;5011364;28;20231;-77
2023/06/12 03:16:49;;;;;;;12.10;11.00;;;;;;;17.00;93.91;92353.59;5022703;28;20195;-76
2023/06/12 03:19:15;;;;;;;11.13;10.23;;;;;;;17.20;93.43;92373.88;5013049;28;20176;-77
2023/06/12 03:21:40;;;;;;;11.10;9.90;;;;;;;16.90;92.69;92303.88;5011542;28;20183;-77
2023/06/12 03:24:06;;;;;;;11.20;10.50;;;;;;;17.20;91.95;92363.34;5022845;28;20220;-77
2023/06/12 03:26:31;;;;;;;10.73;10.00;;;;;;;17.27;92.46;92373.38;5022177;28;20194;-77
2023/06/12 03:28:57;;;;;;;10.87;9.97;;;;;;;17.21;93.15;92369.41;5017704;28;20188;-76
2023/06/12 03:31:26;;;;;;;10.33;9.47;;;;;;;17.27;93.21;92368.09;5003751;28;20203;-77
2023/06/12 03:33:53;;;;;;;11.17;10.27;;;;;;;17.23;93.14;92367.97;5011474;28;20183;-77
2023/06/12 03:36:18;;;;;;;10.40;9.73;;;;;;;17.15;92.92;92347.69;5010366;28;20223;-77
2023/06/12 03:38:44;;;;;;;11.63;10.73;;;;;;;17.15;93.34;92358.25;5012053;28;20183;-78
2023/06/12 03:41:09;;;;;;;12.23;11.33;;;;;;;17.36;93.09;92366.91;5010848;28;20237;-78
2023/06/12 03:43:34;;;;;;;11.10;10.10;;;;;;;17.48;92.24;92364.34;5016532;28;20234;-75
2023/06/12 03:46:00;;;;;;;10.03;9.37;;;;;;;17.60;91.43;92360.97;5012211;28;20231;-78
2023/06/12 03:48:25;;;;;;;11.00;10.10;;;;;;;17.63;91.39;92358.44;5008007;28;20199;-69
2023/06/12 03:50:50;;;;;;;11.13;10.23;;;;;;;17.77;91.50;92357.34;5009896;28;20238;-68
2023/06/12 03:53:16;;;;;;;11.10;10.30;;;;;;;17.96;90.41;92358.34;5010791;28;20211;-70
2023/06/12 03:55:42;;;;;;;11.00;10.20;;;;;;;17.97;89.80;92362.56;5010217;28;20237;-69
2023/06/12 03:58:07;;;;;;;10.10;9.47;;;;;;;18.09;89.90;92349.34;5012550;28;20209;-71
2023/06/12 04:00:32;;;;;;;10.50;9.70;;;;;;;18.39;87.81;92355.22;5010512;28;20211;-69
2023/06/12 04:02:58;;;;;;;11.70;10.73;;;;;;;18.61;86.42;92355.53;5008874;28;20231;-72
2023/06/12 04:05:23;;;;;;;12.07;11.03;;;;;;;18.82;84.20;92337.63;4997560;28;20228;-71
2023/06/12 04:07:49;;;;;;;11.57;10.67;;;;;;;19.20;83.23;92358.34;5018228;28;20256;-72
2023/06/12 04:10:15;;;;;;;13.47;12.23;;;;;;;19.49;83.18;92355.34;5006215;28;20700;-70
2023/06/12 04:12:40;;;;;;;15.57;14.20;;;;;;;19.60;84.18;92367.00;5007977;28;20310;-71
2023/06/12 04:15:06;;;;;;;15.20;13.70;;;;;;;19.69;84.64;92364.97;4991833;28;20224;-72
2023/06/12 04:17:32;;;;;;;15.13;13.77;;;;;;;19.51;86.44;92369.03;5009456;28;20186;-71
2023/06/12 04:19:57;;;;;;;15.37;13.80;;;;;;;20.07;84.49;92381.06;5000163;28;20376;-71
2023/06/12 04:22:25;;;;;;;15.57;14.07;;;;;;;20.03;83.46;92372.25;5010458;28;20185;-72
2023/06/12 04:24:52;;;;;;;17.00;15.50;;;;;;;19.76;84.16;92378.41;5008549;28;20240;-71
2023/06/12 04:27:18;;;;;;;16.20;14.63;;;;;;;18.96;88.79;92363.69;5012653;28;20214;-71
2023/06/12 04:29:45;;;;;;;17.47;15.77;;;;;;;19.73;86.07;92371.13;5009043;28;20246;-72
2023/06/12 04:32:13;;;;;;;16.80;15.40;;;;;;;19.89;85.28;92368.50;5009533;28;20189;-72
2023/06/12 04:34:43;;;;;;;17.20;15.40;;;;;;;19.40;86.13;92361.91;5008291;28;20234;-77
2023/06/12 04:37:13;;;;;;;18.27;16.50;;;;;;;19.82;86.46;92373.63;4992887;28;20261;-81
2023/06/12 04:39:40;;;;;;;16.83;15.20;;;;;;;20.73;80.93;92364.44;5008689;28;20255;-80
2023/06/12 04:42:08;;;;;;;15.37;14.07;;;;;;;21.60;77.25;92370.81;4994550;28;20186;-75
2023/06/12 04:44:37;;;;;;;15.57;14.17;;;;;;;22.54;72.88;92377.03;4997435;28;20256;-75
2023/06/12 04:47:08;;;;;;;16.00;14.38;;;;;;;22.12;72.90;92360.34;4992353;28;20210;-76
2023/06/12 04:49:35;;;;;;;15.23;14.03;;;;;;;21.94;74.48;92365.41;5010113;28;20234;-75
2023/06/12 04:52:03;;;;;;;15.55;14.25;;;;;;;21.78;74.55;92362.06;5011156;28;20188;-76
2023/06/12 04:54:40;;;;;;;15.32;13.75;;;;;;;21.36;76.18;92355.16;5012758;28;20238;-75
2023/06/12 04:57:16;;;;;;;15.63;14.23;;;;;;;20.67;79.58;92351.44;5013973;28;20186;-76
2023/06/12 04:59:42;;;;;;;16.67;15.18;;;;;;;21.65;76.58;92370.53;5011087;28;20226;-76
2023/06/12 05:02:08;;;;;;;16.80;14.50;;;;;;;21.37;76.91;92367.34;5013495;28;20186;-76
2023/06/12 05:04:36;;;;;;;20.08;14.85;;;;;;;21.48;76.32;92366.41;5011860;28;20277;-76
2023/06/12 05:07:03;;;;;;;15.93;14.35;;;;;;;21.24;77.41;92379.19;4993388;28;20186;-76
2023/06/12 05:09:29;;;;;;;14.98;13.63;;;;;;;21.21;78.54;92371.94;5011033;28;20275;-76
2023/06/12 05:11:54;;;;;;;17.10;15.30;;;;;;;21.48;77.00;92376.28;5016436;28;20226;-76
2023/06/12 05:14:20;;;;;;;16.80;15.10;;;;;;;21.63;76.31;92380.72;5017070;28;20249;-76
2023/06/12 05:16:46;;;;;;;16.17;14.57;;;;;;;22.03;74.25;92367.81;5014833;28;20193;-76
2023/06/12 05:19:13;;;;;;;15.60;13.68;;;;;;;21.76;75.47;92382.16;5013086;28;20204;-76
2023/06/12 05:21:41;;;;;;;16.23;14.65;;;;;;;21.56;76.83;92383.25;5015367;28;20204;-76
2023/06/12 05:24:07;;;;;;;16.43;14.73;;;;;;;21.59;76.53;92374.56;5014793;28;20217;-76
2023/06/12 05:26:32;;;;;;;16.27;14.48;;;;;;;21.86;75.55;92384.22;5015935;28;20186;-76
2023/06/12 05:28:57;;;;;;;16.10;14.32;;;;;;;22.22;74.24;92381.06;5008733;28;20261;-76
2023/06/12 05:31:23;;;;;;;17.53;15.23;;;;;;;22.66;72.79;92394.72;5013555;28;20185;-76
2023/06/12 05:33:48;;;;;;;25.23;14.45;;;;;;;23.86;67.14;92375.72;5013318;28;20221;-76
2023/06/12 05:36:13;;;;;;;16.30;14.52;;;;;;;23.31;69.42;92386.16;5013292;28;20229;-76
2023/06/12 05:38:45;;;;;;;20.42;14.57;;;;;;;22.70;71.41;92400.84;4996343;28;20200;-76
2023/06/12 05:41:11;;;;;;;15.38;13.98;;;;;;;22.85;70.69;92402.59;5014132;28;20225;-76
2023/06/12 05:43:38;;;;;;;18.95;15.55;;;;;;;22.87;71.37;92401.09;5014893;28;20224;-76
2023/06/12 05:46:03;;;;;;;16.92;15.30;;;;;;;23.22;69.76;92396.25;5013409;28;20218;-76
2023/06/12 05:48:28;;;;;;;19.25;15.45;;;;;;;23.03;71.45;92398.28;5002575;28;20221;-76
2023/06/12 05:50:54;;;;;;;17.33;15.73;;;;;;;22.81;71.07;92407.88;5012786;28;20233;-76
2023/06/12 05:53:20;;;;;;;16.85;15.13;;;;;;;23.57;67.03;92399.41;5013189;28;20209;-74
2023/06/12 05:55:45;;;;;;;16.60;15.02;;;;;;;23.03;69.83;92416.94;5013061;28;20222;-76
2023/06/12 05:58:11;;;;;;;17.88;16.08;;;;;;;21.23;75.48;92385.66;5016986;28;20194;-76
2023/06/12 06:00:37;;;;;;;18.42;15.73;;;;;;;20.24;80.89;92372.81;5021598;28;20229;-76
2023/06/12 06:03:03;;;;;;;16.75;15.25;;;;;;;20.74;80.46;92409.19;5013161;28;20221;-76
2023/06/12 06:05:30;;;;;;;16.92;15.43;;;;;;;20.43;80.86;92378.19;5012938;28;20234;-76
2023/06/12 06:07:55;;;;;;;18.08;15.52;;;;;;;20.61;79.04;92289.16;5010681;28;20177;-76
2023/06/12 06:10:21;;;;;;;17.27;15.57;;;;;;;21.38;77.44;92390.88;5015615;28;20230;-76
2023/06/12 06:12:46;;;;;;;17.83;16.02;;;;;;;21.42;77.18;92388.28;5017626;28;20237;-76
2023/06/12 06:15:12;;;;;;;19.13;17.20;;;;;;;21.22;78.69;92392.84;5005917;28;20286;-76
2023/06/12 06:17:37;;;;;;;18.80;16.80;;;;;;;21.69;75.75;92400.59;5016530;28;20178;-76
2023/06/12 06:20:05;;;;;;;16.88;15.07;;;;;;;21.62;75.96;92401.22;5013966;28;20224;-76
2023/06/12 06:22:31;;;;;;;18.25;16.35;;;;;;;21.40;76.81;92409.13;5015134;28;20192;-76
2023/06/12 06:24:57;;;;;;;17.67;15.98;;;;;;;21.31;78.68;92406.66;5016441;28;20379;-76
2023/06/12 06:27:22;;;;;;;18.40;16.70;;;;;;;21.83;75.39;92409.63;5016095;28;20192;-75
2023/06/12 06:29:48;;;;;;;19.02;15.68;;;;;;;21.73;77.41;92390.78;5010689;28;20267;-76
2023/06/12 06:32:13;;;;;;;17.10;15.40;;;;;;;22.37;75.13;92393.44;5014226;28;20182;-76
2023/06/12 06:34:38;;;;;;;17.48;15.73;;;;;;;22.98;71.11;92406.56;5012805;28;20238;-76
2023/06/12 06:37:04;;;;;;;16.38;14.68;;;;;;;22.94;70.19;92411.84;5014003;28;20247;-78
2023/06/12 06:39:29;;;;;;;16.40;14.43;;;;;;;23.01;70.15;92409.28;5012522;28;20297;-73
2023/06/12 06:41:55;;;;;;;14.95;13.55;;;;;;;22.66;69.32;92410.69;5019207;28;20249;-75
2023/06/12 06:44:20;;;;;;;20.13;17.58;;;;;;;22.72;70.45;92410.03;5009259;28;20246;-70
2023/06/12 06:46:45;;;;;;;18.13;14.10;;;;;;;22.64;70.82;92419.03;5007751;28;20198;-71
2023/06/12 06:49:11;;;;;;;15.73;14.05;;;;;;;22.75;70.57;92411.19;5012212;28;20194;-71
2023/06/12 06:51:36;;;;;;;15.13;13.82;;;;;;;22.64;70.18;92403.03;5019353;28;20236;-71
2023/06/12 06:54:02;;;;;;;13.88;12.68;;;;;;;22.55;70.74;92394.56;5009698;28;20233;-71
2023/06/12 06:56:27;;;;;;;13.73;12.52;;;;;;;22.51;69.51;92408.88;4988466;28;20212;-72
2023/06/12 06:58:53;;;;;;;12.65;11.50;;;;;;;22.91;67.90;92412.56;5010031;28;20212;-72
2023/06/12 07:01:18;;;;;;;13.38;12.15;;;;;;;23.19;66.53;92404.97;5008295;28;20229;-71
2023/06/12 07:03:43;;;;;;;12.55;11.52;;;;;;;22.95;67.26;92402.75;5010449;28;20236;-71
2023/06/12 07:06:09;;;;;;;14.10;12.57;;;;;;;23.55;66.57;92408.88;5009614;28;20293;-70
2023/06/12 07:08:35;;;;;;;11.82;10.93;;;;;;;24.41;64.02;92409.41;5004432;28;20195;-71
2023/06/12 07:11:00;;;;;;;11.80;10.80;;;;;;;24.13;61.44;92407.28;5009426;28;20228;-69
2023/06/12 07:13:26;;;;;;;11.45;10.45;;;;;;;23.81;62.94;92400.81;5004810;28;20216;-70
2023/06/12 07:15:52;;;;;;;12.63;11.45;;;;;;;24.17;63.19;92405.41;4991992;28;20237;-71
2023/06/12 07:18:18;;;;;;;11.63;10.32;;;;;;;24.55;62.00;92410.31;5010201;28;20196;-70
2023/06/12 07:20:43;;;;;;;11.23;10.25;;;;;;;24.70;61.78;92411.25;5004576;28;20231;-70
2023/06/12 07:23:09;;;;;;;11.77;10.70;;;;;;;24.13;61.82;92401.16;5009931;28;20226;-71
2023/06/12 07:25:34;;;;;;;12.00;11.00;;;;;;;23.89;62.64;92402.44;5010111;28;20233;-71
2023/06/12 07:28:00;;;;;;;12.52;11.52;;;;;;;23.97;63.75;92400.63;5009973;28;20216;-71
2023/06/12 07:30:26;;;;;;;11.98;10.85;;;;;;;24.03;63.59;92407.16;5007489;28;20261;-72
2023/06/12 07:32:52;;;;;;;12.13;10.93;;;;;;;24.41;61.54;92410.19;5009332;28;20202;-72
2023/06/12 07:35:17;;;;;;;12.30;11.23;;;;;;;23.95;61.41;92400.19;5005521;28;20250;-72
2023/06/12 07:37:43;;;;;;;11.85;10.68;;;;;;;23.60;62.35;92405.91;5010965;28;20225;-72
2023/06/12 07:40:09;;;;;;;13.93;11.02;;;;;;;23.71;63.35;92418.22;5009094;28;20230;-72
2023/06/12 07:42:35;;;;;;;10.38;9.52;;;;;;;24.25;58.89;92425.69;5006285;28;20198;-71
2023/06/12 07:45:01;;;;;;;12.20;11.02;;;;;;;24.23;59.88;92408.50;5006413;28;20237;-71
2023/06/12 07:47:26;;;;;;;11.43;10.50;;;;;;;24.37;59.77;92417.41;5010114;28;20187;-72
2023/06/12 07:49:52;;;;;;;11.60;10.60;;;;;;;24.51;60.53;92416.78;5009246;28;20242;-70
2023/06/12 07:52:17;;;;;;;18.05;13.95;;;;;;;24.36;60.05;92410.53;5008894;28;20483;-73
2023/06/12 07:54:42;;;;;;;10.25;9.52;;;;;;;24.73;62.07;92415.84;5014101;28;20240;-72
2023/06/12 07:57:08;;;;;;;12.00;10.90;;;;;;;24.69;59.53;92415.03;5008506;28;20200;-70
2023/06/12 07:59:33;;;;;;;12.02;10.57;;;;;;;24.72;59.88;92427.63;5007948;28;20241;-70
2023/06/12 08:02:00;;;;;;;10.75;9.95;;;;;;;24.44;60.44;92422.03;5009134;28;20194;-71
2023/06/12 08:04:26;;;;;;;11.65;10.75;;;;;;;24.75;59.55;92416.22;5000769;28;20242;-70
2023/06/12 08:06:54;;;;;;;11.68;10.77;;;;;;;24.19;61.24;92411.13;5009206;28;20184;-71
2023/06/12 08:09:19;;;;;;;11.07;10.07;;;;;;;24.35;60.97;92418.91;5005218;28;20278;-71
2023/06/12 08:11:45;;;;;;;11.48;10.57;;;;;;;24.49;59.03;92408.34;5009484;28;20223;-71
2023/06/12 08:14:11;;;;;;;11.25;10.35;;;;;;;23.44;61.02;92416.00;5006947;28;20185;-70
2023/06/12 08:16:37;;;;;;;11.38;10.32;;;;;;;24.08;62.42;92423.59;5009273;28;20184;-70
2023/06/12 08:19:02;;;;;;;11.52;10.30;;;;;;;24.57;60.86;92410.72;5003167;28;20198;-71
2023/06/12 08:21:28;;;;;;;10.23;9.57;;;;;;;24.95;57.09;92425.56;5008593;28;20188;-69
2023/06/12 08:23:53;;;;;;;11.50;10.43;;;;;;;22.89;63.16;92406.06;5006757;28;20226;-71
2023/06/12 08:26:19;;;;;;;12.40;11.18;;;;;;;23.36;65.00;92401.78;5008184;28;20229;-71
2023/06/12 08:28:49;;;;;;;11.82;10.82;;;;;;;24.71;61.43;92410.88;5007548;28;20194;-71
2023/06/12 08:31:15;;;;;;;11.60;10.60;;;;;;;23.80;61.69;92411.84;5008189;28;20305;-71
2023/06/12 08:33:40;;;;;;;11.48;10.35;;;;;;;25.13;59.07;92421.84;5001737;28;20196;-71
2023/06/12 08:36:05;;;;;;;11.55;10.40;;;;;;;24.89;59.71;92421.66;5008534;28;20221;-71
2023/06/12 08:38:31;;;;;;;12.05;10.98;;;;;;;22.71;65.40;92413.78;5008984;28;20199;-70
2023/06/12 08:40:58;;;;;;;11.95;10.77;;;;;;;23.62;63.89;92420.41;5005290;28;20215;-70
2023/06/12 08:43:23;;;;;;;11.43;10.43;;;;;;;23.41;61.51;92398.81;5008940;28;20224;-69
2023/06/12 08:45:51;;;;;;;10.23;9.32;;;;;;;22.96;59.19;92414.94;5002673;28;20229;-68
2023/06/12 08:48:19;;;;;;;10.45;9.40;;;;;;;23.77;57.33;92417.91;5008624;28;20224;-70
2023/06/12 08:50:45;;;;;;;9.93;8.98;;;;;;;23.08;58.37;92422.69;5008417;28;20226;-69
2023/06/12 08:53:11;;;;;;;9.02;8.43;;;;;;;23.44;56.92;92414.06;5003747;28;20203;-70
2023/06/12 08:55:39;;;;;;;9.77;8.98;;;;;;;23.28;58.14;92418.06;5003438;28;20353;-71
2023/06/12 08:58:07;;;;;;;9.63;8.95;;;;;;;23.50;57.78;92407.28;5008595;28;20214;-71
2023/06/12 09:00:32;;;;;;;10.05;9.38;;;;;;;24.19;55.27;92421.81;5007795;28;20587;-70
2023/06/12 09:03:00;;;;;;;11.23;8.60;;;;;;;24.00;56.55;92405.97;5008706;28;20197;-69
2023/06/12 09:05:33;;;;;;;8.85;8.25;;;;;;;23.48;57.67;92416.78;5007672;28;20256;-69
2023/06/12 09:08:00;;;;;;;9.68;8.82;;;;;;;23.78;56.85;92420.22;4990905;28;20197;-69
2023/06/12 09:10:25;;;;;;;10.20;9.32;;;;;;;22.48;60.50;92404.25;5007283;28;20231;-68
2023/06/12 09:12:54;;;;;;;9.27;8.40;;;;;;;22.10;57.96;92402.50;5007149;28;20234;-68
2023/06/12 09:15:21;;;;;;;8.30;7.82;;;;;;;23.19;58.39;92412.97;5004081;28;20242;-68
2023/06/12 09:17:47;;;;;;;9.55;8.95;;;;;;;22.18;62.12;92406.81;5001381;28;20178;-68
2023/06/12 09:20:33;;;;;;;9.95;9.30;;;;;;;22.32;62.08;92398.31;5008317;28;20317;-69
2023/06/12 09:23:00;;;;;;;10.02;9.23;;;;;;;21.94;63.98;92391.22;5006080;28;20856;-68
2023/06/12 09:25:36;;;;;;;9.68;8.73;;;;;;;22.11;61.52;92396.06;5007054;28;20230;-67
2023/06/12 09:28:07;;;;;;;9.65;9.07;;;;;;;22.67;64.02;92402.34;5008134;28;20204;-68
2023/06/12 09:30:33;;;;;;;9.30;8.40;;;;;;;22.15;67.05;92395.00;5003527;28;20238;-68
2023/06/12 09:33:00;;;;;;;9.40;8.82;;;;;;;22.03;67.43;92376.56;4990977;28;20269;-69
2023/06/12 09:35:26;;;;;;;9.10;8.55;;;;;;;22.06;68.51;92375.84;5007742;28;20243;-68
2023/06/12 09:37:51;;;;;;;9.10;8.50;;;;;;;21.67;70.38;92376.25;5007536;28;20213;-68
2023/06/12 09:40:16;;;;;;;9.10;8.60;;;;;;;21.69;72.98;92379.31;5002993;28;20774;-71
2023/06/12 09:42:42;;;;;;;10.15;9.13;;;;;;;21.45;71.75;92372.41;5008094;28;20652;-71
2023/06/12 09:45:23;;;;;;;9.48;8.63;;;;;;;21.30;75.71;92377.81;5010086;28;20332;-71
2023/06/12 09:47:50;;;;;;;11.18;9.75;;;;;;;21.69;75.06;92363.38;5011776;28;20189;-71
2023/06/12 09:50:17;;;;;;;10.27;9.23;;;;;;;21.92;75.44;92372.16;5011172;28;20256;-71
2023/06/12 09:52:44;;;;;;;10.20;8.63;;;;;;;22.02;74.79;92376.91;5010361;28;20201;-70
2023/06/12 09:55:12;;;;;;;10.40;9.45;;;;;;;21.53;77.04;92370.66;5003594;28;20245;-70
2023/06/12 09:57:40;;;;;;;9.38;8.68;;;;;;;21.61;76.08;92361.72;5014344;28;20229;-71
2023/06/12 10:00:08;;;;;;;9.82;8.63;;;;;;;21.65;77.23;92368.63;5010829;28;20229;-71
2023/06/12 10:02:35;;;;;;;11.00;9.80;;;;;;;21.41;80.56;92373.47;5010870;28;20218;-72
2023/06/12 10:05:16;;;;;;;10.07;9.15;;;;;;;20.84;82.18;92349.53;5014663;28;20270;-73
2023/06/12 10:07:47;;;;;;;11.70;10.70;;;;;;;20.99;83.58;92372.63;4990470;28;20257;-73
2023/06/12 10:10:14;;;;;;;10.90;9.88;;;;;;;21.46;82.40;92373.19;5007340;28;20986;-73
2023/06/12 10:12:41;;;;;;;11.55;10.48;;;;;;;20.66;86.62;92365.06;5006747;28;20236;-72
2023/06/12 10:15:07;;;;;;;11.75;10.70;;;;;;;20.57;87.00;92372.44;5010714;28;20233;-72
2023/06/12 10:17:34;;;;;;;11.18;10.35;;;;;;;20.78;86.08;92362.28;5011559;28;20182;-73
2023/06/12 10:20:02;;;;;;;11.68;10.88;;;;;;;20.64;85.73;92367.28;4993926;28;20234;-73
2023/06/12 10:22:28;;;;;;;11.68;10.75;;;;;;;20.47;86.46;92370.28;5002274;28;20197;-73
2023/06/12 10:24:56;;;;;;;11.02;10.30;;;;;;;20.48;83.68;92369.22;5017362;28;20253;-73
2023/06/12 10:27:22;;;;;;;10.48;9.68;;;;;;;20.09;86.18;92370.91;5011261;28;20650;-73
2023/06/12 10:29:55;;;;;;;10.68;9.85;;;;;;;19.94;86.36;92361.06;5006321;28;20223;-73
2023/06/12 10:32:21;;;;;;;10.70;9.80;;;;;;;20.73;84.49;92365.97;5009243;28;20219;-72
2023/06/12 10:34:48;;;;;;;8.95;8.35;;;;;;;20.30;84.51;92358.19;5007100;28;20227;-71
2023/06/12 10:37:21;;;;;;;9.63;8.93;;;;;;;20.58;84.67;92352.75;4993594;28;20197;-72
2023/06/12 10:39:47;;;;;;;9.17;8.67;;;;;;;20.24;86.55;92348.94;5010533;28;20317;-72
2023/06/12 10:42:12;;;;;;;10.60;9.90;;;;;;;20.26;87.67;92346.75;4995311;28;20182;-71
2023/06/12 10:44:39;;;;;;;10.40;9.50;;;;;;;21.30;83.53;92345.94;5009105;28;20246;-72
2023/06/12 10:47:16;;;;;;;9.98;9.27;;;;;;;21.73;81.68;92343.72;4992668;28;20214;-72
2023/06/12 10:49:56;;;;;;;10.40;9.60;;;;;;;21.52;82.78;92337.25;5010634;28;20231;-71
2023/06/12 10:52:22;;;;;;;12.60;11.32;;;;;;;21.44;84.08;92331.06;5009236;28;20209;-72
2023/06/12 10:54:48;;;;;;;10.20;9.52;;;;;;;22.12;82.45;92345.19;5004572;28;20302;-72
2023/06/12 10:57:15;;;;;;;10.70;9.88;;;;;;;22.52;80.31;92347.38;5010483;28;20184;-71
2023/06/12 10:59:44;;;;;;;10.40;9.70;;;;;;;22.78;78.96;92344.69;5000401;28;20229;-72
2023/06/12 11:02:10;;;;;;;10.55;9.80;;;;;;;21.85;80.97;92342.81;5007398;28;20186;-71
2023/06/12 11:04:39;;;;;;;10.25;9.40;;;;;;;22.09;83.63;92335.25;5009769;28;21129;-72
2023/06/12 11:07:05;;;;;;;10.50;9.80;;;;;;;22.71;78.33;92333.94;5006310;28;20203;-72
2023/06/12 11:09:40;;;;;;;9.60;8.80;;;;;;;23.59;75.65;92337.72;5009739;28;20253;-72
2023/06/12 11:12:07;;;;;;;9.88;9.20;;;;;;;22.92;74.43;92328.91;5010894;28;20313;-72
2023/06/12 11:14:33;;;;;;;10.40;9.55;;;;;;;23.02;73.36;92311.53;5009520;28;20230;-71
2023/06/12 11:16:59;;;;;;;10.20;9.60;;;;;;;22.75;70.78;92324.13;5010361;28;20191;-70
2023/06/12 11:19:28;;;;;;;9.05;8.55;;;;;;;22.97;72.07;92327.81;5008640;28;20269;-71